ADDS METAR Data INFO
IDs: Format: Raw Decoded Include TAF

Data at: 0635 UTC 15 Dec 2017

KSGF 150552Z 22003KT 10SM OVC050 M01/M04 A3010 RMK AO2 SLP203 T10061044 10028 21006 400501028 58005
KSGF 150452Z 00000KT 10SM OVC050 01/M03 A3011 RMK AO2 SLP204 T00061033
KSGF 150352Z 00000KT 10SM OVC050 02/M04 A3012 RMK AO2 SLP208 T00221039
KSGF 150252Z 22003KT 10SM OVC050 01/M03 A3012 RMK AO2 SLP209 T00111033 51013
KSGF 150152Z 00000KT 10SM OVC046 03/M04 A3011 RMK AO2 SLP206 T00281039
KSGF 150052Z 00000KT 10SM OVC045 03/M04 A3011 RMK AO2 SLP204 T00281044
KSGF 142352Z 35003KT 10SM OVC042 02/M04 A3008 RMK AO2 SLP195 T00221039 10039 20022 53005
KSGF 142252Z 34004KT 10SM OVC040 03/M04 A3007 RMK AO2 SLP192 T00281044
KSGF 142152Z 34008KT 10SM OVC039 03/M04 A3007 RMK AO2 SLP192 T00331044
KSGF 142052Z 34007KT 10SM OVC036 03/M04 A3007 RMK AO2 SLP190 T00331044 55001
KSGF 141952Z 32008KT 10SM OVC037 04/M05 A3007 RMK AO2 SLP190 T00391050
KSGF 141852Z 34011KT 10SM OVC038 04/M05 A3006 RMK AO2 SLP187 T00391050
KSGF 141752Z 01015KT 10SM OVC037 04/M06 A3007 RMK AO2 SLP189 T00391056 10039 20011 50003
KSGF 141652Z 36008KT 10SM OVC037 03/M06 A3008 RMK AO2 SLP193 T00331056
KSGF 141552Z 02012KT 10SM BKN037 03/M06 A3007 RMK AO2 SLP189 T00281056
KSGF 141452Z 35010KT 10SM OVC036 02/M05 A3006 RMK AO2 SLP185 T00221050 53026
KSGF 141352Z 34009KT 10SM OVC032 02/M03 A3003 RMK AO2 SLP175 T00171028
KSGF 141252Z 34006KT 10SM OVC032 02/M02 A3001 RMK AO2 SLP165 T00171022
KSGF 141152Z 34008KT 10SM OVC032 02/M02 A2998 RMK AO2 SLP157 T00171022 10050 21028 53012
KSGF 141052Z 34006KT 10SM OVC033 M01/M03 A2996 RMK AO2 SLP150 T10111033
KSGF 140952Z 35007KT 10SM CLR M02/M04 A2995 RMK AO2 SLP145 T10171044
KSGF 140852Z 00000KT 10SM CLR 01/M03 A2995 RMK AO2 SLP143 T00061033 53016
KSGF 140752Z 34008KT 10SM CLR M01/M03 A2993 RMK AO2 SLP136 T10061033
KSGF 140652Z 36008KT 10SM CLR 03/M02 A2990 RMK AO2 SLP128 T00331022
KSGF 140552Z 35008KT 10SM CLR 05/M02 A2990 RMK AO2 SLP126 T00501022 10111 20044 401441022 51014
KSGF 140452Z 34008KT 10SM CLR 05/M03 A2989 RMK AO2 SLP123 T00501028
KSGF 140352Z 33010KT 10SM CLR 07/M03 A2987 RMK AO2 SLP117 T00671028
KSGF 140252Z 30005KT 10SM CLR 08/M03 A2986 RMK AO2 SLP111 T00831028 53022
KSGF 140152Z 31006KT 10SM CLR 07/M03 A2983 RMK AO2 SLP107 T00721028
KSGF 140052Z 30005KT 10SM CLR 11/M03 A2981 RMK AO2 SLP099 T01061028
KSGF 132352Z 29006KT 10SM CLR 11/M03 A2979 RMK AO2 SLP091 T01111028 10144 20111 53008
KSGF 132252Z AUTO 28008KT 10SM CLR 13/M03 A2977 RMK AO2 SLP085 T01281028
KSGF 132152Z 28012KT 10SM CLR 14/M03 A2977 RMK AO2 SLP082 T01441033
KSGF 132052Z 29012G19KT 10SM CLR 14/M03 A2976 RMK AO2 SLP081 T01441033 55009
KSGF 131952Z 30012G22KT 10SM CLR 14/M04 A2976 RMK AO2 SLP081 T01441039
KSGF 131852Z 30013G23KT 10SM CLR 13/M03 A2977 RMK AO2 SLP084 T01331033